sensor_id;sensor_type;location;lat;lon;timestamp;P1;durP1;ratioP1;P2;durP2;ratioP2
65187;SDS011;51775;51.148;6.950;2023-03-01T00:01:04;3.30;;;2.05;;
65187;SDS011;51775;51.148;6.950;2023-03-01T00:03:38;3.85;;;2.35;;
65187;SDS011;51775;51.148;6.950;2023-03-01T00:06:05;3.67;;;2.35;;
65187;SDS011;51775;51.148;6.950;2023-03-01T00:08:31;3.88;;;2.42;;
65187;SDS011;51775;51.148;6.950;2023-03-01T00:11:06;4.13;;;2.45;;
65187;SDS011;51775;51.148;6.950;2023-03-01T00:13:31;3.35;;;2.30;;
65187;SDS011;51775;51.148;6.950;2023-03-01T00:15:57;3.08;;;2.20;;
65187;SDS011;51775;51.148;6.950;2023-03-01T00:18:22;3.72;;;2.30;;
65187;SDS011;51775;51.148;6.950;2023-03-01T00:20:51;3.05;;;2.05;;
65187;SDS011;51775;51.148;6.950;2023-03-01T00:23:17;3.55;;;2.13;;
65187;SDS011;51775;51.148;6.950;2023-03-01T00:25:43;3.10;;;2.15;;
65187;SDS011;51775;51.148;6.950;2023-03-01T00:28:09;3.10;;;2.10;;
65187;SDS011;51775;51.148;6.950;2023-03-01T00:30:34;3.30;;;2.15;;
65187;SDS011;51775;51.148;6.950;2023-03-01T00:32:59;3.50;;;2.30;;
65187;SDS011;51775;51.148;6.950;2023-03-01T00:35:25;3.08;;;2.15;;
65187;SDS011;51775;51.148;6.950;2023-03-01T00:37:50;3.58;;;2.20;;
65187;SDS011;51775;51.148;6.950;2023-03-01T00:40:15;3.42;;;2.30;;
65187;SDS011;51775;51.148;6.950;2023-03-01T00:42:40;3.72;;;2.20;;
65187;SDS011;51775;51.148;6.950;2023-03-01T00:45:06;3.90;;;2.30;;
65187;SDS011;51775;51.148;6.950;2023-03-01T00:47:32;3.63;;;2.30;;
65187;SDS011;51775;51.148;6.950;2023-03-01T00:49:57;4.68;;;2.80;;
65187;SDS011;51775;51.148;6.950;2023-03-01T00:52:22;4.38;;;2.97;;
65187;SDS011;51775;51.148;6.950;2023-03-01T00:54:47;3.95;;;2.70;;
65187;SDS011;51775;51.148;6.950;2023-03-01T00:57:13;5.55;;;3.20;;
65187;SDS011;51775;51.148;6.950;2023-03-01T00:59:38;3.78;;;2.65;;
65187;SDS011;51775;51.148;6.950;2023-03-01T01:02:03;4.80;;;2.92;;
65187;SDS011;51775;51.148;6.950;2023-03-01T01:04:29;4.03;;;2.70;;
65187;SDS011;51775;51.148;6.950;2023-03-01T01:06:54;3.65;;;2.40;;
65187;SDS011;51775;51.148;6.950;2023-03-01T01:09:19;3.67;;;2.30;;
65187;SDS011;51775;51.148;6.950;2023-03-01T01:11:45;3.80;;;2.50;;
65187;SDS011;51775;51.148;6.950;2023-03-01T01:14:12;3.85;;;2.13;;
65187;SDS011;51775;51.148;6.950;2023-03-01T01:16:37;4.03;;;2.30;;
65187;SDS011;51775;51.148;6.950;2023-03-01T01:19:03;3.05;;;2.13;;
65187;SDS011;51775;51.148;6.950;2023-03-01T01:21:29;3.97;;;2.40;;
65187;SDS011;51775;51.148;6.950;2023-03-01T01:23:54;3.80;;;2.15;;
65187;SDS011;51775;51.148;6.950;2023-03-01T01:26:21;3.70;;;2.30;;
65187;SDS011;51775;51.148;6.950;2023-03-01T01:28:49;4.07;;;2.25;;
65187;SDS011;51775;51.148;6.950;2023-03-01T01:31:15;3.35;;;2.30;;
65187;SDS011;51775;51.148;6.950;2023-03-01T01:33:40;2.92;;;1.92;;
65187;SDS011;51775;51.148;6.950;2023-03-01T01:36:06;3.22;;;2.20;;
65187;SDS011;51775;51.148;6.950;2023-03-01T01:38:33;2.90;;;2.00;;
65187;SDS011;51775;51.148;6.950;2023-03-01T01:40:58;3.10;;;2.10;;
65187;SDS011;51775;51.148;6.950;2023-03-01T01:43:29;2.90;;;2.00;;
65187;SDS011;51775;51.148;6.950;2023-03-01T01:48:53;4.53;;;2.45;;
65187;SDS011;51775;51.148;6.950;2023-03-01T01:51:25;3.58;;;2.40;;
65187;SDS011;51775;51.148;6.950;2023-03-01T01:53:54;3.53;;;2.17;;
65187;SDS011;51775;51.148;6.950;2023-03-01T01:56:25;5.93;;;2.50;;
65187;SDS011;51775;51.148;6.950;2023-03-01T01:58:52;4.20;;;2.30;;
65187;SDS011;51775;51.148;6.950;2023-03-01T02:01:17;3.30;;;2.10;;
65187;SDS011;51775;51.148;6.950;2023-03-01T02:03:44;2.95;;;1.95;;
65187;SDS011;51775;51.148;6.950;2023-03-01T02:08:37;4.27;;;2.70;;
65187;SDS011;51775;51.148;6.950;2023-03-01T02:11:04;4.15;;;2.60;;
65187;SDS011;51775;51.148;6.950;2023-03-01T02:13:31;4.05;;;2.80;;
65187;SDS011;51775;51.148;6.950;2023-03-01T02:15:57;4.10;;;2.67;;
65187;SDS011;51775;51.148;6.950;2023-03-01T02:18:23;4.07;;;2.80;;
65187;SDS011;51775;51.148;6.950;2023-03-01T02:23:39;4.13;;;2.70;;
65187;SDS011;51775;51.148;6.950;2023-03-01T02:26:09;3.42;;;2.25;;
65187;SDS011;51775;51.148;6.950;2023-03-01T02:28:42;3.40;;;2.13;;
65187;SDS011;51775;51.148;6.950;2023-03-01T02:31:09;3.63;;;2.10;;
65187;SDS011;51775;51.148;6.950;2023-03-01T02:33:36;3.67;;;2.10;;
65187;SDS011;51775;51.148;6.950;2023-03-01T02:36:03;3.45;;;2.20;;
65187;SDS011;51775;51.148;6.950;2023-03-01T02:38:32;3.08;;;2.10;;
65187;SDS011;51775;51.148;6.950;2023-03-01T02:40:57;3.40;;;2.20;;
65187;SDS011;51775;51.148;6.950;2023-03-01T02:43:26;2.90;;;1.92;;
65187;SDS011;51775;51.148;6.950;2023-03-01T02:45:56;3.00;;;2.08;;
65187;SDS011;51775;51.148;6.950;2023-03-01T02:48:23;3.20;;;2.10;;
65187;SDS011;51775;51.148;6.950;2023-03-01T02:56:28;4.47;;;2.20;;
65187;SDS011;51775;51.148;6.950;2023-03-01T02:58:55;2.83;;;1.90;;
65187;SDS011;51775;51.148;6.950;2023-03-01T03:01:20;3.42;;;2.22;;
65187;SDS011;51775;51.148;6.950;2023-03-01T03:03:45;2.70;;;1.90;;
65187;SDS011;51775;51.148;6.950;2023-03-01T03:06:11;3.78;;;2.10;;
65187;SDS011;51775;51.148;6.950;2023-03-01T03:08:37;3.35;;;2.28;;
65187;SDS011;51775;51.148;6.950;2023-03-01T03:11:02;3.50;;;2.10;;
65187;SDS011;51775;51.148;6.950;2023-03-01T03:13:28;3.47;;;2.03;;
65187;SDS011;51775;51.148;6.950;2023-03-01T03:15:54;3.40;;;2.08;;
65187;SDS011;51775;51.148;6.950;2023-03-01T03:18:22;3.25;;;2.10;;
65187;SDS011;51775;51.148;6.950;2023-03-01T03:20:48;3.10;;;2.10;;
65187;SDS011;51775;51.148;6.950;2023-03-01T03:23:14;3.97;;;2.30;;
65187;SDS011;51775;51.148;6.950;2023-03-01T03:25:39;3.95;;;2.60;;
65187;SDS011;51775;51.148;6.950;2023-03-01T03:28:05;4.57;;;2.55;;
65187;SDS011;51775;51.148;6.950;2023-03-01T03:30:31;3.85;;;2.60;;
65187;SDS011;51775;51.148;6.950;2023-03-01T03:32:57;4.35;;;2.60;;
65187;SDS011;51775;51.148;6.950;2023-03-01T03:35:25;3.97;;;2.72;;
65187;SDS011;51775;51.148;6.950;2023-03-01T03:37:51;4.25;;;2.70;;
65187;SDS011;51775;51.148;6.950;2023-03-01T03:40:17;3.90;;;2.55;;
65187;SDS011;51775;51.148;6.950;2023-03-01T03:42:42;3.38;;;2.08;;
65187;SDS011;51775;51.148;6.950;2023-03-01T03:45:08;2.90;;;2.00;;
65187;SDS011;51775;51.148;6.950;2023-03-01T03:47:33;3.40;;;2.10;;
65187;SDS011;51775;51.148;6.950;2023-03-01T03:49:58;3.28;;;2.20;;
65187;SDS011;51775;51.148;6.950;2023-03-01T03:52:24;2.97;;;2.15;;
65187;SDS011;51775;51.148;6.950;2023-03-01T03:54:49;4.38;;;2.35;;
65187;SDS011;51775;51.148;6.950;2023-03-01T03:57:14;2.90;;;2.00;;
65187;SDS011;51775;51.148;6.950;2023-03-01T03:59:39;3.92;;;2.35;;
65187;SDS011;51775;51.148;6.950;2023-03-01T04:02:05;3.35;;;2.22;;
65187;SDS011;51775;51.148;6.950;2023-03-01T04:04:30;2.80;;;1.83;;
65187;SDS011;51775;51.148;6.950;2023-03-01T04:06:55;3.63;;;1.95;;
65187;SDS011;51775;51.148;6.950;2023-03-01T04:09:20;3.28;;;2.20;;
65187;SDS011;51775;51.148;6.950;2023-03-01T04:11:46;3.08;;;2.00;;
65187;SDS011;51775;51.148;6.950;2023-03-01T04:14:11;2.88;;;1.90;;
65187;SDS011;51775;51.148;6.950;2023-03-01T04:16:36;3.65;;;2.08;;
65187;SDS011;51775;51.148;6.950;2023-03-01T04:19:01;3.60;;;2.10;;
65187;SDS011;51775;51.148;6.950;2023-03-01T04:21:27;3.38;;;2.08;;
65187;SDS011;51775;51.148;6.950;2023-03-01T04:23:52;3.03;;;2.00;;
65187;SDS011;51775;51.148;6.950;2023-03-01T04:26:18;4.15;;;1.95;;
65187;SDS011;51775;51.148;6.950;2023-03-01T04:28:44;2.95;;;1.98;;
65187;SDS011;51775;51.148;6.950;2023-03-01T04:31:10;2.88;;;2.13;;
65187;SDS011;51775;51.148;6.950;2023-03-01T04:33:40;3.35;;;2.15;;
65187;SDS011;51775;51.148;6.950;2023-03-01T04:36:10;4.20;;;2.10;;
65187;SDS011;51775;51.148;6.950;2023-03-01T04:38:37;3.28;;;2.00;;
65187;SDS011;51775;51.148;6.950;2023-03-01T04:41:07;3.58;;;2.38;;
65187;SDS011;51775;51.148;6.950;2023-03-01T04:43:35;3.72;;;2.47;;
65187;SDS011;51775;51.148;6.950;2023-03-01T04:46:01;3.30;;;2.47;;
65187;SDS011;51775;51.148;6.950;2023-03-01T04:48:31;4.13;;;2.78;;
65187;SDS011;51775;51.148;6.950;2023-03-01T04:50:57;3.95;;;2.80;;
65187;SDS011;51775;51.148;6.950;2023-03-01T04:53:23;4.68;;;3.00;;
65187;SDS011;51775;51.148;6.950;2023-03-01T04:55:49;3.80;;;2.72;;
65187;SDS011;51775;51.148;6.950;2023-03-01T04:58:14;3.58;;;2.40;;
65187;SDS011;51775;51.148;6.950;2023-03-01T05:00:39;3.42;;;2.25;;
65187;SDS011;51775;51.148;6.950;2023-03-01T05:03:05;3.42;;;2.17;;
65187;SDS011;51775;51.148;6.950;2023-03-01T05:05:31;3.22;;;2.10;;
65187;SDS011;51775;51.148;6.950;2023-03-01T05:07:59;3.60;;;2.10;;
65187;SDS011;51775;51.148;6.950;2023-03-01T05:10:27;3.00;;;2.05;;
65187;SDS011;51775;51.148;6.950;2023-03-01T05:12:54;4.72;;;2.00;;
65187;SDS011;51775;51.148;6.950;2023-03-01T05:15:20;3.30;;;2.28;;
65187;SDS011;51775;51.148;6.950;2023-03-01T05:17:45;3.58;;;2.15;;
65187;SDS011;51775;51.148;6.950;2023-03-01T05:20:10;4.47;;;2.45;;
65187;SDS011;51775;51.148;6.950;2023-03-01T05:22:36;3.22;;;2.35;;
65187;SDS011;51775;51.148;6.950;2023-03-01T05:25:01;4.03;;;2.17;;
65187;SDS011;51775;51.148;6.950;2023-03-01T05:27:28;3.22;;;2.10;;
65187;SDS011;51775;51.148;6.950;2023-03-01T05:29:53;3.33;;;2.17;;
65187;SDS011;51775;51.148;6.950;2023-03-01T05:32:18;2.92;;;1.80;;
65187;SDS011;51775;51.148;6.950;2023-03-01T05:34:44;2.97;;;2.00;;
65187;SDS011;51775;51.148;6.950;2023-03-01T05:37:09;3.88;;;2.30;;
65187;SDS011;51775;51.148;6.950;2023-03-01T05:39:34;3.38;;;2.08;;
65187;SDS011;51775;51.148;6.950;2023-03-01T05:42:00;3.10;;;2.00;;
65187;SDS011;51775;51.148;6.950;2023-03-01T05:44:28;3.28;;;1.98;;
65187;SDS011;51775;51.148;6.950;2023-03-01T05:46:54;3.80;;;2.22;;
65187;SDS011;51775;51.148;6.950;2023-03-01T05:49:19;3.22;;;2.08;;
65187;SDS011;51775;51.148;6.950;2023-03-01T05:51:49;3.88;;;2.35;;
65187;SDS011;51775;51.148;6.950;2023-03-01T05:54:16;4.47;;;2.70;;
65187;SDS011;51775;51.148;6.950;2023-03-01T05:56:41;5.25;;;3.20;;
65187;SDS011;51775;51.148;6.950;2023-03-01T05:59:08;4.32;;;2.90;;
65187;SDS011;51775;51.148;6.950;2023-03-01T06:01:34;4.38;;;2.90;;
65187;SDS011;51775;51.148;6.950;2023-03-01T06:04:00;5.00;;;3.10;;
65187;SDS011;51775;51.148;6.950;2023-03-01T06:06:25;4.00;;;2.70;;
65187;SDS011;51775;51.148;6.950;2023-03-01T06:08:51;5.00;;;3.10;;
65187;SDS011;51775;51.148;6.950;2023-03-01T06:11:17;4.40;;;3.08;;
65187;SDS011;51775;51.148;6.950;2023-03-01T06:13:43;4.57;;;3.25;;
65187;SDS011;51775;51.148;6.950;2023-03-01T06:16:09;4.45;;;2.90;;
65187;SDS011;51775;51.148;6.950;2023-03-01T06:18:35;3.97;;;2.55;;
65187;SDS011;51775;51.148;6.950;2023-03-01T06:21:01;3.90;;;2.30;;
65187;SDS011;51775;51.148;6.950;2023-03-01T06:23:27;3.85;;;2.30;;
65187;SDS011;51775;51.148;6.950;2023-03-01T06:25:52;3.70;;;2.30;;
65187;SDS011;51775;51.148;6.950;2023-03-01T06:28:18;3.55;;;2.17;;
65187;SDS011;51775;51.148;6.950;2023-03-01T06:30:44;3.42;;;2.20;;
65187;SDS011;51775;51.148;6.950;2023-03-01T06:33:09;3.55;;;2.40;;
65187;SDS011;51775;51.148;6.950;2023-03-01T06:35:34;3.72;;;2.17;;
65187;SDS011;51775;51.148;6.950;2023-03-01T06:38:01;4.00;;;2.40;;
65187;SDS011;51775;51.148;6.950;2023-03-01T06:40:27;3.72;;;2.28;;
65187;SDS011;51775;51.148;6.950;2023-03-01T06:42:53;3.10;;;2.10;;
65187;SDS011;51775;51.148;6.950;2023-03-01T06:45:19;3.42;;;2.20;;
65187;SDS011;51775;51.148;6.950;2023-03-01T06:47:45;3.75;;;2.20;;
65187;SDS011;51775;51.148;6.950;2023-03-01T06:50:11;3.85;;;2.20;;
65187;SDS011;51775;51.148;6.950;2023-03-01T06:52:37;4.40;;;2.53;;
65187;SDS011;51775;51.148;6.950;2023-03-01T06:55:02;3.80;;;2.08;;
65187;SDS011;51775;51.148;6.950;2023-03-01T06:57:29;5.72;;;2.80;;
65187;SDS011;51775;51.148;6.950;2023-03-01T06:59:54;3.65;;;2.30;;
65187;SDS011;51775;51.148;6.950;2023-03-01T07:02:19;3.90;;;2.42;;
65187;SDS011;51775;51.148;6.950;2023-03-01T07:04:45;4.13;;;2.70;;
65187;SDS011;51775;51.148;6.950;2023-03-01T07:07:10;3.70;;;2.40;;
65187;SDS011;51775;51.148;6.950;2023-03-01T07:09:36;5.70;;;2.60;;
65187;SDS011;51775;51.148;6.950;2023-03-01T07:12:01;4.60;;;2.50;;
65187;SDS011;51775;51.148;6.950;2023-03-01T07:14:26;4.38;;;2.60;;
65187;SDS011;51775;51.148;6.950;2023-03-01T07:16:52;4.75;;;2.97;;
65187;SDS011;51775;51.148;6.950;2023-03-01T07:19:18;5.18;;;3.10;;
65187;SDS011;51775;51.148;6.950;2023-03-01T07:21:44;4.28;;;2.75;;
65187;SDS011;51775;51.148;6.950;2023-03-01T07:24:10;4.75;;;3.13;;
65187;SDS011;51775;51.148;6.950;2023-03-01T07:26:35;5.25;;;2.92;;
65187;SDS011;51775;51.148;6.950;2023-03-01T07:29:03;4.85;;;3.40;;
65187;SDS011;51775;51.148;6.950;2023-03-01T07:31:31;4.63;;;3.00;;
65187;SDS011;51775;51.148;6.950;2023-03-01T07:33:56;4.38;;;2.45;;
65187;SDS011;51775;51.148;6.950;2023-03-01T07:36:22;4.50;;;2.47;;
65187;SDS011;51775;51.148;6.950;2023-03-01T07:38:48;4.22;;;2.40;;
65187;SDS011;51775;51.148;6.950;2023-03-01T07:41:13;3.35;;;2.30;;
65187;SDS011;51775;51.148;6.950;2023-03-01T07:43:39;4.07;;;2.28;;
65187;SDS011;51775;51.148;6.950;2023-03-01T07:46:05;4.32;;;2.60;;
65187;SDS011;51775;51.148;6.950;2023-03-01T07:48:31;4.75;;;2.30;;
65187;SDS011;51775;51.148;6.950;2023-03-01T07:51:00;4.78;;;2.60;;
65187;SDS011;51775;51.148;6.950;2023-03-01T07:53:27;4.13;;;2.10;;
65187;SDS011;51775;51.148;6.950;2023-03-01T07:56:09;4.43;;;2.33;;
65187;SDS011;51775;51.148;6.950;2023-03-01T07:58:37;3.85;;;2.22;;
65187;SDS011;51775;51.148;6.950;2023-03-01T08:01:07;4.30;;;2.30;;
65187;SDS011;51775;51.148;6.950;2023-03-01T08:03:34;3.58;;;2.20;;
65187;SDS011;51775;51.148;6.950;2023-03-01T08:06:04;4.55;;;2.10;;
65187;SDS011;51775;51.148;6.950;2023-03-01T08:08:32;3.90;;;2.20;;
65187;SDS011;51775;51.148;6.950;2023-03-01T08:11:01;4.07;;;2.60;;
65187;SDS011;51775;51.148;6.950;2023-03-01T08:13:28;4.35;;;2.80;;
65187;SDS011;51775;51.148;6.950;2023-03-01T08:15:53;5.47;;;2.88;;
65187;SDS011;51775;51.148;6.950;2023-03-01T08:18:19;4.53;;;2.85;;
65187;SDS011;51775;51.148;6.950;2023-03-01T08:20:45;4.40;;;2.58;;
65187;SDS011;51775;51.148;6.950;2023-03-01T08:23:11;3.97;;;2.45;;
65187;SDS011;51775;51.148;6.950;2023-03-01T08:25:37;4.78;;;2.17;;
65187;SDS011;51775;51.148;6.950;2023-03-01T08:28:03;4.57;;;2.50;;
65187;SDS011;51775;51.148;6.950;2023-03-01T08:30:29;4.82;;;2.65;;
65187;SDS011;51775;51.148;6.950;2023-03-01T08:32:54;5.85;;;2.50;;
65187;SDS011;51775;51.148;6.950;2023-03-01T08:35:21;6.85;;;2.63;;
65187;SDS011;51775;51.148;6.950;2023-03-01T08:37:47;5.20;;;3.10;;
65187;SDS011;51775;51.148;6.950;2023-03-01T08:40:12;6.60;;;3.20;;
65187;SDS011;51775;51.148;6.950;2023-03-01T08:42:38;6.82;;;3.25;;
65187;SDS011;51775;51.148;6.950;2023-03-01T08:45:03;5.63;;;3.30;;
65187;SDS011;51775;51.148;6.950;2023-03-01T08:47:29;6.53;;;3.33;;
65187;SDS011;51775;51.148;6.950;2023-03-01T08:49:54;6.00;;;3.03;;
65187;SDS011;51775;51.148;6.950;2023-03-01T08:52:20;7.15;;;2.88;;
65187;SDS011;51775;51.148;6.950;2023-03-01T08:54:47;5.53;;;3.03;;
65187;SDS011;51775;51.148;6.950;2023-03-01T08:57:12;7.03;;;3.50;;
65187;SDS011;51775;51.148;6.950;2023-03-01T08:59:38;4.88;;;2.97;;
65187;SDS011;51775;51.148;6.950;2023-03-01T09:02:04;6.30;;;3.22;;
65187;SDS011;51775;51.148;6.950;2023-03-01T09:04:29;4.75;;;2.90;;
65187;SDS011;51775;51.148;6.950;2023-03-01T09:06:55;4.22;;;2.70;;
65187;SDS011;51775;51.148;6.950;2023-03-01T09:09:20;5.20;;;2.92;;
65187;SDS011;51775;51.148;6.950;2023-03-01T09:11:45;6.30;;;3.10;;
65187;SDS011;51775;51.148;6.950;2023-03-01T09:14:12;4.50;;;2.80;;
65187;SDS011;51775;51.148;6.950;2023-03-01T09:16:38;5.03;;;2.92;;
65187;SDS011;51775;51.148;6.950;2023-03-01T09:19:03;4.70;;;2.72;;
65187;SDS011;51775;51.148;6.950;2023-03-01T09:21:30;4.85;;;2.85;;
65187;SDS011;51775;51.148;6.950;2023-03-01T09:23:56;4.13;;;2.78;;
65187;SDS011;51775;51.148;6.950;2023-03-01T09:26:22;4.20;;;2.90;;
65187;SDS011;51775;51.148;6.950;2023-03-01T09:28:48;4.38;;;2.80;;
65187;SDS011;51775;51.148;6.950;2023-03-01T09:31:16;4.68;;;2.70;;
65187;SDS011;51775;51.148;6.950;2023-03-01T09:33:42;4.93;;;3.17;;
65187;SDS011;51775;51.148;6.950;2023-03-01T09:36:11;3.72;;;2.50;;
65187;SDS011;51775;51.148;6.950;2023-03-01T09:38:38;4.82;;;2.80;;
65187;SDS011;51775;51.148;6.950;2023-03-01T09:44:10;4.70;;;2.90;;
65187;SDS011;51775;51.148;6.950;2023-03-01T09:46:43;4.35;;;2.90;;
65187;SDS011;51775;51.148;6.950;2023-03-01T09:49:21;5.28;;;3.00;;
65187;SDS011;51775;51.148;6.950;2023-03-01T09:52:00;4.53;;;2.80;;
65187;SDS011;51775;51.148;6.950;2023-03-01T09:54:40;5.28;;;2.70;;
65187;SDS011;51775;51.148;6.950;2023-03-01T09:57:10;4.50;;;2.63;;
65187;SDS011;51775;51.148;6.950;2023-03-01T10:05:14;5.55;;;2.60;;
65187;SDS011;51775;51.148;6.950;2023-03-01T10:10:38;4.15;;;2.75;;
65187;SDS011;51775;51.148;6.950;2023-03-01T10:13:20;3.78;;;2.65;;
65187;SDS011;51775;51.148;6.950;2023-03-01T10:15:50;4.03;;;2.80;;
65187;SDS011;51775;51.148;6.950;2023-03-01T10:18:20;4.55;;;2.72;;
65187;SDS011;51775;51.148;6.950;2023-03-01T10:21:01;4.00;;;2.72;;
65187;SDS011;51775;51.148;6.950;2023-03-01T10:23:30;6.47;;;3.20;;
65187;SDS011;51775;51.148;6.950;2023-03-01T10:31:50;4.68;;;2.78;;
65187;SDS011;51775;51.148;6.950;2023-03-01T10:34:18;5.28;;;2.80;;
65187;SDS011;51775;51.148;6.950;2023-03-01T10:36:52;4.25;;;2.92;;
65187;SDS011;51775;51.148;6.950;2023-03-01T10:39:22;4.43;;;2.90;;
65187;SDS011;51775;51.148;6.950;2023-03-01T10:42:02;4.72;;;2.85;;
65187;SDS011;51775;51.148;6.950;2023-03-01T10:44:36;6.15;;;2.97;;
65187;SDS011;51775;51.148;6.950;2023-03-01T10:47:02;4.35;;;2.90;;
65187;SDS011;51775;51.148;6.950;2023-03-01T10:49:27;4.40;;;2.67;;
65187;SDS011;51775;51.148;6.950;2023-03-01T10:51:53;4.43;;;2.70;;
65187;SDS011;51775;51.148;6.950;2023-03-01T10:54:20;4.43;;;2.90;;
65187;SDS011;51775;51.148;6.950;2023-03-01T10:56:57;5.50;;;2.90;;
65187;SDS011;51775;51.148;6.950;2023-03-01T11:02:04;4.65;;;2.70;;
65187;SDS011;51775;51.148;6.950;2023-03-01T11:07:50;5.97;;;2.90;;
65187;SDS011;51775;51.148;6.950;2023-03-01T11:10:18;4.75;;;2.80;;
65187;SDS011;51775;51.148;6.950;2023-03-01T11:12:45;3.97;;;2.65;;
65187;SDS011;51775;51.148;6.950;2023-03-01T11:15:19;3.72;;;2.55;;
65187;SDS011;51775;51.148;6.950;2023-03-01T11:17:47;4.15;;;2.60;;
65187;SDS011;51775;51.148;6.950;2023-03-01T11:22:38;3.73;;;2.50;;
65187;SDS011;51775;51.148;6.950;2023-03-01T11:25:18;4.25;;;2.70;;
65187;SDS011;51775;51.148;6.950;2023-03-01T11:27:48;4.85;;;2.90;;
65187;SDS011;51775;51.148;6.950;2023-03-01T11:33:03;3.75;;;2.53;;
65187;SDS011;51775;51.148;6.950;2023-03-01T11:35:34;7.90;;;2.63;;
65187;SDS011;51775;51.148;6.950;2023-03-01T11:38:04;4.53;;;2.60;;
65187;SDS011;51775;51.148;6.950;2023-03-01T11:40:44;4.35;;;2.70;;
65187;SDS011;51775;51.148;6.950;2023-03-01T11:57:25;3.28;;;2.35;;
65187;SDS011;51775;51.148;6.950;2023-03-01T12:00:15;4.18;;;2.50;;
65187;SDS011;51775;51.148;6.950;2023-03-01T12:03:11;3.78;;;2.55;;
65187;SDS011;51775;51.148;6.950;2023-03-01T12:16:29;3.83;;;2.42;;
65187;SDS011;51775;51.148;6.950;2023-03-01T12:19:17;3.88;;;2.53;;
65187;SDS011;51775;51.148;6.950;2023-03-01T12:30:30;4.50;;;2.70;;
65187;SDS011;51775;51.148;6.950;2023-03-01T12:36:09;3.88;;;2.42;;
65187;SDS011;51775;51.148;6.950;2023-03-01T12:38:41;4.57;;;2.63;;
65187;SDS011;51775;51.148;6.950;2023-03-01T12:44:27;5.18;;;2.58;;
65187;SDS011;51775;51.148;6.950;2023-03-01T12:47:26;4.20;;;2.35;;
65187;SDS011;51775;51.148;6.950;2023-03-01T12:50:04;3.65;;;2.47;;
65187;SDS011;51775;51.148;6.950;2023-03-01T12:58:20;3.92;;;2.30;;
65187;SDS011;51775;51.148;6.950;2023-03-01T13:00:57;4.07;;;2.67;;
65187;SDS011;51775;51.148;6.950;2023-03-01T13:08:49;3.63;;;2.20;;
65187;SDS011;51775;51.148;6.950;2023-03-01T13:11:44;4.47;;;2.35;;
65187;SDS011;51775;51.148;6.950;2023-03-01T13:16:47;3.40;;;2.17;;
65187;SDS011;51775;51.148;6.950;2023-03-01T13:19:13;3.05;;;2.20;;
65187;SDS011;51775;51.148;6.950;2023-03-01T13:21:41;3.42;;;2.10;;
65187;SDS011;51775;51.148;6.950;2023-03-01T13:37:44;3.65;;;2.53;;
65187;SDS011;51775;51.148;6.950;2023-03-01T13:42:43;4.70;;;2.40;;
65187;SDS011;51775;51.148;6.950;2023-03-01T13:45:15;4.68;;;2.40;;
65187;SDS011;51775;51.148;6.950;2023-03-01T13:47:59;3.33;;;2.22;;
65187;SDS011;51775;51.148;6.950;2023-03-01T13:50:48;3.58;;;2.35;;
65187;SDS011;51775;51.148;6.950;2023-03-01T13:53:18;4.57;;;2.50;;
65187;SDS011;51775;51.148;6.950;2023-03-01T13:55:47;3.85;;;2.20;;
65187;SDS011;51775;51.148;6.950;2023-03-01T13:58:18;3.83;;;2.20;;
65187;SDS011;51775;51.148;6.950;2023-03-01T14:00:54;3.38;;;2.22;;
65187;SDS011;51775;51.148;6.950;2023-03-01T14:03:31;3.55;;;2.20;;
65187;SDS011;51775;51.148;6.950;2023-03-01T14:08:29;4.05;;;2.45;;
65187;SDS011;51775;51.148;6.950;2023-03-01T14:16:34;4.05;;;2.47;;
65187;SDS011;51775;51.148;6.950;2023-03-01T14:22:28;7.18;;;3.33;;
65187;SDS011;51775;51.148;6.950;2023-03-01T14:24:56;3.90;;;2.40;;
65187;SDS011;51775;51.148;6.950;2023-03-01T14:27:26;4.68;;;2.67;;
65187;SDS011;51775;51.148;6.950;2023-03-01T14:30:01;4.20;;;2.60;;
65187;SDS011;51775;51.148;6.950;2023-03-01T14:32:29;5.43;;;3.20;;
65187;SDS011;51775;51.148;6.950;2023-03-01T14:34:56;7.68;;;3.53;;
65187;SDS011;51775;51.148;6.950;2023-03-01T14:37:27;6.30;;;2.53;;
65187;SDS011;51775;51.148;6.950;2023-03-01T14:39:54;4.47;;;2.90;;
65187;SDS011;51775;51.148;6.950;2023-03-01T14:42:21;5.45;;;2.55;;
65187;SDS011;51775;51.148;6.950;2023-03-01T14:44:49;4.10;;;2.60;;
65187;SDS011;51775;51.148;6.950;2023-03-01T14:47:29;5.10;;;2.67;;
65187;SDS011;51775;51.148;6.950;2023-03-01T14:49:57;4.63;;;2.53;;
65187;SDS011;51775;51.148;6.950;2023-03-01T14:52:34;4.80;;;2.55;;
65187;SDS011;51775;51.148;6.950;2023-03-01T14:55:03;3.80;;;2.22;;
65187;SDS011;51775;51.148;6.950;2023-03-01T14:57:42;4.63;;;2.50;;
65187;SDS011;51775;51.148;6.950;2023-03-01T15:00:10;4.90;;;2.83;;
65187;SDS011;51775;51.148;6.950;2023-03-01T15:02:43;5.15;;;2.38;;
65187;SDS011;51775;51.148;6.950;2023-03-01T15:05:13;4.18;;;2.65;;
65187;SDS011;51775;51.148;6.950;2023-03-01T15:07:40;4.43;;;2.38;;
65187;SDS011;51775;51.148;6.950;2023-03-01T15:10:12;4.63;;;2.47;;
65187;SDS011;51775;51.148;6.950;2023-03-01T15:12:44;3.17;;;2.10;;
65187;SDS011;51775;51.148;6.950;2023-03-01T15:15:20;3.72;;;2.50;;
65187;SDS011;51775;51.148;6.950;2023-03-01T15:18:04;4.07;;;2.45;;
65187;SDS011;51775;51.148;6.950;2023-03-01T15:20:38;6.40;;;2.50;;
65187;SDS011;51775;51.148;6.950;2023-03-01T15:23:03;6.30;;;2.30;;
65187;SDS011;51775;51.148;6.950;2023-03-01T15:25:30;8.40;;;2.50;;
65187;SDS011;51775;51.148;6.950;2023-03-01T15:27:56;4.07;;;2.03;;
65187;SDS011;51775;51.148;6.950;2023-03-01T15:33:16;8.25;;;2.40;;
65187;SDS011;51775;51.148;6.950;2023-03-01T15:35:53;4.20;;;2.47;;
65187;SDS011;51775;51.148;6.950;2023-03-01T15:38:27;4.00;;;2.28;;
65187;SDS011;51775;51.148;6.950;2023-03-01T15:40:53;4.90;;;2.50;;
65187;SDS011;51775;51.148;6.950;2023-03-01T15:43:38;4.60;;;2.10;;
65187;SDS011;51775;51.148;6.950;2023-03-01T15:46:13;3.92;;;2.22;;
65187;SDS011;51775;51.148;6.950;2023-03-01T15:48:43;5.07;;;2.30;;
65187;SDS011;51775;51.148;6.950;2023-03-01T15:51:10;3.75;;;2.38;;
65187;SDS011;51775;51.148;6.950;2023-03-01T15:53:38;4.65;;;2.20;;
65187;SDS011;51775;51.148;6.950;2023-03-01T15:56:03;4.35;;;2.80;;
65187;SDS011;51775;51.148;6.950;2023-03-01T15:58:29;4.82;;;2.30;;
65187;SDS011;51775;51.148;6.950;2023-03-01T16:00:54;3.63;;;2.40;;
65187;SDS011;51775;51.148;6.950;2023-03-01T16:03:19;5.80;;;2.60;;
65187;SDS011;51775;51.148;6.950;2023-03-01T16:05:44;3.97;;;2.42;;
65187;SDS011;51775;51.148;6.950;2023-03-01T16:08:10;3.67;;;2.33;;
65187;SDS011;51775;51.148;6.950;2023-03-01T16:10:35;4.20;;;2.60;;
65187;SDS011;51775;51.148;6.950;2023-03-01T16:13:00;3.42;;;2.22;;
65187;SDS011;51775;51.148;6.950;2023-03-01T16:15:27;3.97;;;2.20;;
65187;SDS011;51775;51.148;6.950;2023-03-01T16:17:54;3.95;;;2.28;;
65187;SDS011;51775;51.148;6.950;2023-03-01T16:20:20;4.47;;;2.35;;
65187;SDS011;51775;51.148;6.950;2023-03-01T16:22:47;3.83;;;2.47;;
65187;SDS011;51775;51.148;6.950;2023-03-01T16:25:13;3.83;;;2.20;;
65187;SDS011;51775;51.148;6.950;2023-03-01T16:27:47;4.47;;;2.40;;
65187;SDS011;51775;51.148;6.950;2023-03-01T16:30:14;4.28;;;2.30;;
65187;SDS011;51775;51.148;6.950;2023-03-01T16:32:42;4.45;;;2.47;;
65187;SDS011;51775;51.148;6.950;2023-03-01T16:35:09;3.85;;;2.33;;
65187;SDS011;51775;51.148;6.950;2023-03-01T16:37:36;3.78;;;2.00;;
65187;SDS011;51775;51.148;6.950;2023-03-01T16:40:03;3.78;;;2.05;;
65187;SDS011;51775;51.148;6.950;2023-03-01T16:42:35;4.10;;;2.30;;
65187;SDS011;51775;51.148;6.950;2023-03-01T16:45:01;3.70;;;2.42;;
65187;SDS011;51775;51.148;6.950;2023-03-01T16:47:27;4.20;;;2.10;;
65187;SDS011;51775;51.148;6.950;2023-03-01T16:49:52;3.88;;;2.38;;
65187;SDS011;51775;51.148;6.950;2023-03-01T16:52:18;3.20;;;2.15;;
65187;SDS011;51775;51.148;6.950;2023-03-01T16:54:44;3.85;;;2.20;;
65187;SDS011;51775;51.148;6.950;2023-03-01T16:57:09;3.95;;;2.22;;
65187;SDS011;51775;51.148;6.950;2023-03-01T16:59:34;3.50;;;2.03;;